createdAt,value
2019-03-03T00:04:00.238Z,17.37
2019-03-03T00:08:44.932Z,16.53
2019-03-03T00:13:29.687Z,16.87
2019-03-03T00:18:14.242Z,16.03
2019-03-03T00:22:58.874Z,14.87
2019-03-03T00:27:43.435Z,15.30
2019-03-03T00:32:28.021Z,14.60
2019-03-03T00:37:43.666Z,14.90
2019-03-03T00:42:53.190Z,14.33
2019-03-03T00:47:51.607Z,14.90
2019-03-03T00:53:04.308Z,14.43
2019-03-03T00:58:04.056Z,13.60
2019-03-03T01:03:10.687Z,12.77
2019-03-03T01:08:14.112Z,12.67
2019-03-03T01:13:21.953Z,12.43
2019-03-03T01:18:26.739Z,13.53
2019-03-03T01:23:30.231Z,11.70
2019-03-03T01:28:14.800Z,12.33
2019-03-03T01:32:59.441Z,12.37
2019-03-03T01:37:44.038Z,12.40
2019-03-03T01:42:28.697Z,11.60
2019-03-03T01:47:13.746Z,11.57
2019-03-03T01:51:58.302Z,12.30
2019-03-03T01:56:42.855Z,11.27
2019-03-03T02:01:27.757Z,12.03
2019-03-03T02:06:12.559Z,11.67
2019-03-03T02:10:57.402Z,10.67
2019-03-03T02:15:42.076Z,11.30
2019-03-03T02:20:26.619Z,10.33
2019-03-03T02:25:11.143Z,10.70
2019-03-03T02:29:55.663Z,10.53
2019-03-03T02:34:40.254Z,11.07
2019-03-03T02:39:24.846Z,10.43
2019-03-03T02:44:09.572Z,10.27
2019-03-03T02:48:54.257Z,9.70
2019-03-03T02:53:38.842Z,10.00
2019-03-03T02:58:23.757Z,9.33
2019-03-03T03:03:10.809Z,8.50
2019-03-03T03:08:04.801Z,8.33
2019-03-03T03:12:57.684Z,9.07
2019-03-03T03:18:01.142Z,9.13
2019-03-03T03:22:53.973Z,8.10
2019-03-03T03:27:57.542Z,7.93
2019-03-03T03:33:16.085Z,7.90
2019-03-03T03:38:10.540Z,7.77
2019-03-03T03:43:02.707Z,8.00
2019-03-03T03:48:06.243Z,7.60
2019-03-03T03:53:01.224Z,6.80
2019-03-03T03:57:50.779Z,6.00
2019-03-03T04:02:52.969Z,6.13
2019-03-03T04:07:59.220Z,5.77
2019-03-03T04:13:14.813Z,5.87
2019-03-03T04:18:19.442Z,5.97
2019-03-03T04:23:32.282Z,4.93
2019-03-03T04:28:38.586Z,5.07
2019-03-03T04:33:42.070Z,4.70
2019-03-03T04:38:54.913Z,4.37
2019-03-03T04:43:57.296Z,4.50
2019-03-03T04:49:04.890Z,3.97
2019-03-03T04:54:08.527Z,4.37
2019-03-03T04:59:08.463Z,4.07
2019-03-03T05:04:17.174Z,3.40
2019-03-03T05:09:08.463Z,3.50
2019-03-03T05:14:11.954Z,3.47
2019-03-03T05:19:09.010Z,3.90
2019-03-03T05:23:53.554Z,3.30
2019-03-03T05:28:38.149Z,3.20
2019-03-03T05:33:22.858Z,3.30
2019-03-03T05:38:07.424Z,3.67
2019-03-03T05:42:52.045Z,3.07
2019-03-03T05:47:36.601Z,3.60
2019-03-03T05:52:21.252Z,3.17
2019-03-03T05:57:05.837Z,3.60
2019-03-03T06:01:50.376Z,3.07
2019-03-03T06:06:34.956Z,3.57
2019-03-03T06:11:19.640Z,2.70
2019-03-03T06:16:04.494Z,2.87
2019-03-03T06:20:49.019Z,3.87
2019-03-03T06:25:33.689Z,3.03
2019-03-03T06:30:18.303Z,3.03
2019-03-03T06:35:02.753Z,3.00
2019-03-03T06:39:47.353Z,3.50
2019-03-03T06:44:31.978Z,3.47
2019-03-03T06:49:16.694Z,4.10
2019-03-03T06:54:01.274Z,4.30
2019-03-03T06:58:45.994Z,3.80
2019-03-03T07:03:30.608Z,3.90
2019-03-03T07:08:17.301Z,3.67
2019-03-03T07:13:01.910Z,3.90
2019-03-03T07:17:46.481Z,3.70
2019-03-03T07:22:31.320Z,4.60
2019-03-03T07:27:16.030Z,4.03
2019-03-03T07:32:00.689Z,3.80
2019-03-03T07:36:45.296Z,4.23
2019-03-03T07:41:29.965Z,3.60
2019-03-03T07:46:14.492Z,3.23
2019-03-03T07:50:59.153Z,3.63
2019-03-03T07:55:43.688Z,3.57
2019-03-03T08:00:28.238Z,3.40
2019-03-03T08:05:13.148Z,3.47
2019-03-03T08:10:38.430Z,3.00
2019-03-03T08:15:23.170Z,3.37
2019-03-03T08:20:08.141Z,3.03
2019-03-03T08:24:52.697Z,2.73
2019-03-03T08:29:37.217Z,2.87
2019-03-03T08:34:21.781Z,3.43
2019-03-03T08:39:07.897Z,2.87
2019-03-03T08:44:02.244Z,2.70
2019-03-03T08:49:08.019Z,3.00
2019-03-03T08:54:06.581Z,3.00
2019-03-03T08:59:19.545Z,3.00
2019-03-03T09:04:13.510Z,2.60
2019-03-03T09:09:32.412Z,2.70
2019-03-03T09:14:35.883Z,2.77
2019-03-03T09:19:42.171Z,2.30
2019-03-03T09:24:51.646Z,2.70
2019-03-03T09:29:46.140Z,2.63
2019-03-03T09:35:08.134Z,2.77
2019-03-03T09:40:09.669Z,2.20
2019-03-03T09:45:30.211Z,2.80
2019-03-03T09:50:26.270Z,2.30
2019-03-03T09:55:29.584Z,2.70
2019-03-03T10:00:26.733Z,2.50
2019-03-03T10:05:30.881Z,2.30
2019-03-03T10:10:37.388Z,2.93
2019-03-03T10:15:30.785Z,2.37
2019-03-03T10:20:37.474Z,2.30
2019-03-03T10:25:53.036Z,2.30
2019-03-03T10:31:02.394Z,2.30
2019-03-03T10:36:18.021Z,3.00
2019-03-03T10:41:19.791Z,2.10
2019-03-03T10:46:26.497Z,2.67
2019-03-03T10:51:30.123Z,3.13
2019-03-03T10:56:23.799Z,3.00
2019-03-03T11:01:19.742Z,2.40
2019-03-03T11:06:29.133Z,2.77
2019-03-03T11:11:22.802Z,2.33
2019-03-03T11:16:35.504Z,2.50
2019-03-03T11:21:42.071Z,2.57
2019-03-03T11:26:44.141Z,2.70
2019-03-03T11:31:53.591Z,2.73
2019-03-03T11:36:57.082Z,2.20
2019-03-03T11:41:57.365Z,2.30
2019-03-03T11:47:04.015Z,2.80
2019-03-03T11:51:56.032Z,2.77
2019-03-03T11:56:56.205Z,3.40
2019-03-03T12:01:50.484Z,2.23
2019-03-03T12:06:50.601Z,2.87
2019-03-03T12:11:54.263Z,2.00
2019-03-03T12:17:04.076Z,2.60
2019-03-03T12:22:16.533Z,2.50
2019-03-03T12:27:20.161Z,1.93
2019-03-03T12:32:26.651Z,2.23
2019-03-03T12:37:35.855Z,2.10
2019-03-03T12:42:30.859Z,2.07
2019-03-03T12:47:36.847Z,2.60
2019-03-03T12:52:37.728Z,2.00
2019-03-03T12:57:50.291Z,2.03
2019-03-03T13:02:55.764Z,2.57
2019-03-03T13:07:56.414Z,2.13
2019-03-03T13:12:59.893Z,2.43
2019-03-03T13:18:06.324Z,2.70
2019-03-03T13:23:15.972Z,2.53
2019-03-03T13:28:21.126Z,2.83
2019-03-03T13:33:27.724Z,2.53
2019-03-03T13:38:29.842Z,2.40
2019-03-03T13:43:14.548Z,2.40
2019-03-03T13:47:59.296Z,2.77
2019-03-03T13:52:44.300Z,2.37
2019-03-03T13:57:29.674Z,2.27
2019-03-03T14:02:18.367Z,2.40
2019-03-03T14:07:03.002Z,2.70
2019-03-03T14:11:47.552Z,2.70
2019-03-03T14:16:32.287Z,2.37
2019-03-03T14:21:16.989Z,2.20
2019-03-03T14:26:01.506Z,2.40
2019-03-03T14:30:46.073Z,2.87
2019-03-03T14:35:30.646Z,2.13
2019-03-03T14:40:16.557Z,2.33
2019-03-03T14:45:01.162Z,2.70
2019-03-03T14:49:45.819Z,2.77
2019-03-03T14:54:30.396Z,2.80
2019-03-03T14:59:15.154Z,2.33
2019-03-03T15:03:59.721Z,2.40
2019-03-03T15:08:44.604Z,2.60
2019-03-03T15:13:29.171Z,2.53
2019-03-03T15:18:13.728Z,2.50
2019-03-03T15:22:58.524Z,2.00
2019-03-03T15:27:43.368Z,2.80
2019-03-03T15:32:28.080Z,2.60
2019-03-03T15:37:17.902Z,2.70
2019-03-03T15:42:02.537Z,3.00
2019-03-03T15:46:47.465Z,2.73
2019-03-03T15:51:32.108Z,2.30
2019-03-03T15:56:19.260Z,2.27
2019-03-03T16:01:05.474Z,2.40
2019-03-03T16:05:50.057Z,2.33
2019-03-03T16:10:35.115Z,2.50
2019-03-03T16:15:19.737Z,2.30
2019-03-03T16:20:05.019Z,2.53
2019-03-03T16:25:10.083Z,2.83
2019-03-03T16:29:54.662Z,3.00
2019-03-03T16:34:39.247Z,2.60
2019-03-03T16:39:23.849Z,2.60
2019-03-03T16:44:14.414Z,2.53
2019-03-03T16:48:59.012Z,2.83
2019-03-03T16:53:43.661Z,2.10
2019-03-03T16:58:28.288Z,2.13
2019-03-03T17:03:12.865Z,2.43
2019-03-03T17:07:57.700Z,2.20
2019-03-03T17:12:42.313Z,2.17
2019-03-03T17:17:26.968Z,2.37
2019-03-03T17:22:11.640Z,2.17
2019-03-03T17:26:56.318Z,3.08
2019-03-03T17:31:41.074Z,2.80
2019-03-03T17:36:25.790Z,3.03
2019-03-03T17:41:10.329Z,2.67
2019-03-03T17:45:55.055Z,2.57
2019-03-03T17:50:39.772Z,2.43
2019-03-03T17:55:24.441Z,2.50
2019-03-03T18:00:12.827Z,2.87
2019-03-03T18:04:57.456Z,5.47
2019-03-03T18:09:42.027Z,5.13
2019-03-03T18:14:27.972Z,2.20
2019-03-03T18:19:12.562Z,2.60
2019-03-03T18:23:57.751Z,2.13
2019-03-03T18:28:42.279Z,2.20
2019-03-03T18:33:27.249Z,2.30
2019-03-03T18:38:12.473Z,2.50
2019-03-03T18:42:57.064Z,1.83
2019-03-03T18:47:42.093Z,1.83
2019-03-03T18:52:27.175Z,2.47
2019-03-03T18:57:12.800Z,2.70
2019-03-03T19:02:03.914Z,1.73
2019-03-03T19:06:48.874Z,2.03
2019-03-03T19:11:33.591Z,1.97
2019-03-03T19:16:19.549Z,1.80
2019-03-03T19:21:04.513Z,1.73
2019-03-03T19:25:49.646Z,1.80
2019-03-03T19:30:34.394Z,1.90
2019-03-03T19:35:19.253Z,1.87
2019-03-03T19:40:04.147Z,2.17
2019-03-03T19:44:48.981Z,1.93
2019-03-03T19:49:34.035Z,1.63
2019-03-03T19:54:18.759Z,2.27
2019-03-03T19:59:03.653Z,1.80
2019-03-03T20:04:13.876Z,2.13
2019-03-03T20:08:58.577Z,1.73
2019-03-03T20:13:43.256Z,1.60
2019-03-03T20:18:28.009Z,2.33
2019-03-03T20:23:12.727Z,1.90
2019-03-03T20:27:57.539Z,1.80
2019-03-03T20:33:48.109Z,1.70
2019-03-03T20:37:31.929Z,1.67
2019-03-03T20:42:16.964Z,2.00
2019-03-03T20:47:02.197Z,2.07
2019-03-03T20:51:46.963Z,1.80
2019-03-03T20:56:31.598Z,1.67
2019-03-03T21:01:16.653Z,1.60
2019-03-03T21:06:01.628Z,1.70
2019-03-03T21:10:46.369Z,1.70
2019-03-03T21:15:31.129Z,1.83
2019-03-03T21:20:16.821Z,2.03
2019-03-03T21:25:01.431Z,1.70
2019-03-03T21:29:46.081Z,2.43
2019-03-03T21:34:31.457Z,1.67
2019-03-03T21:39:16.385Z,1.87
2019-03-03T21:44:01.255Z,1.90
2019-03-03T21:48:49.105Z,1.50
2019-03-03T21:53:34.561Z,1.70
2019-03-03T21:58:19.844Z,2.10
2019-03-03T22:03:05.201Z,1.50
2019-03-03T22:07:49.853Z,1.80
2019-03-03T22:12:34.615Z,1.90
2019-03-03T22:17:19.235Z,1.77
2019-03-03T22:22:03.957Z,2.40
2019-03-03T22:26:48.683Z,1.80
2019-03-03T22:31:33.252Z,1.63
2019-03-03T22:36:18.145Z,1.70
2019-03-03T22:41:03.048Z,2.23
2019-03-03T22:45:48.223Z,2.03
2019-03-03T22:50:33.007Z,1.90
2019-03-03T22:55:19.664Z,2.00
2019-03-03T23:00:06.600Z,1.97
2019-03-03T23:05:16.027Z,1.80
2019-03-03T23:10:41.004Z,1.60
2019-03-03T23:15:56.520Z,1.90
2019-03-03T23:21:27.004Z,2.00
2019-03-03T23:26:16.536Z,1.97
2019-03-03T23:31:01.348Z,1.83
2019-03-03T23:35:46.434Z,1.93
2019-03-03T23:40:35.268Z,2.30
2019-03-03T23:45:24.618Z,1.70
2019-03-03T23:50:09.648Z,2.10
2019-03-03T23:54:54.338Z,2.10
2019-03-03T23:59:39.389Z,2.03
